3G4 weather

Ashland County Airport
Ashland, Ohio, United States

Public forecast

Using degrees Fahrenheit for public forecast. Weather courtesy of forecast.io.

Closest aviation weather report (METAR) to Ashland County Airport

Closest report is Mansfield Lahm Regional Airport, 12.8 nm (23.8 km) WSW. Retrieved 2020/01/29 04:42 UTC (0 seconds ago):

KMFD 290442Z AUTO 33004KT 9SM SCT006 BKN020 OVC025 M01/M02 A3007

Closest aviation forecast (TAF) to Ashland County Airport

Closest forecast is Mansfield Lahm Regional Airport, 12.8 nm (23.8 km) WSW. Retrieved 2020-01-29 00:30 UTC (4 hours ago):

TAF KMFD 282328Z 2900/2924 VRB03KT P6SM OVC020 TEMPO 2900/2904 BKN009 FM290600 04004KT P6SM OVC015